Thorco Crystal — V2BP9 — position and weather

sailwx.info

Track history (hours):
 
Tides and Currents Weather Stations Pressure Air Temp Water Temp Dewpoint Dewpoint Depression Visibility Wind Speed Wind Dir Waves Ship Positions

Thorco Crystal

Last reported at 2015-May-02 20:21 UTC. Time now 2015-May-07 04:37 UTC.
Position N 31°12' E 032°18'.

Length 145 m; draft 6.8 m.

Type: Ship. MMSI: 304736000.

Date/timePositionNaut miles runAvg speedWind from/ knotsBaromVisibWave heightAir tempDewpointWater temp
2015-May-02 20:21N 31°12' E 032°18'  
2015-Apr-30 01:19N 35°44' E 018°29'1013.5
2015-Apr-30 00:33N 35°46' E 018°17'5513.4
2015-Apr-29 20:27N 35°58' E 017°11'12413.3
2015-Apr-29 11:09N 36°26' E 014°41'813.2
2015-Apr-29 10:33N 36°28' E 014°31'1313.1
2015-Apr-29 09:32N 36°31' E 014°15'1713.4
2015-Apr-29 08:18N 36°34' E 013°55'  
2015-Apr-26 21:06N 36°23' W 002°08'1012.9
2015-Apr-26 20:20N 36°22' W 002°20'1112.9
2015-Apr-26 19:29N 36°20' W 002°33'1312.9
2015-Apr-26 18:29N 36°18' W 002°49'11613.0
2015-Apr-26 09:33N 35°59' W 005°11'1515.5
2015-Apr-26 08:33N 35°57' W 005°30'26011.3
2015-Apr-25 09:32N 38°18' W 010°04'1413.3
2015-Apr-25 08:30N 38°31' W 010°07'1713.1
2015-Apr-25 07:13N 38°48' W 010°10'913.1
2015-Apr-25 06:33N 38°57' W 010°11'60612.1
2015-Apr-23 04:33N 48°35' W 006°01'  
Track history (hours):
 
Tides and Currents Weather Stations Pressure Air Temp Water Temp Dewpoint Dewpoint Depression Visibility Wind Speed Wind Dir Waves Ship Positions

Thorco Crystal

Last reported at 2015-May-02 20:21 UTC. Time now 2015-May-07 04:37 UTC.
Position N 31°12' E 032°18'.

Length 145 m; draft 6.8 m.

Type: Ship. MMSI: 304736000.

Date/timePositionNaut miles runAvg speedWind from/ knotsBaromVisibWave heightAir tempDewpointWater temp
2015-May-02 20:21N 31°12' E 032°18'  
2015-Apr-30 01:19N 35°44' E 018°29'1013.5
2015-Apr-30 00:33N 35°46' E 018°17'5513.4
2015-Apr-29 20:27N 35°58' E 017°11'12413.3
2015-Apr-29 11:09N 36°26' E 014°41'813.2
2015-Apr-29 10:33N 36°28' E 014°31'1313.1
2015-Apr-29 09:32N 36°31' E 014°15'1713.4
2015-Apr-29 08:18N 36°34' E 013°55'  
2015-Apr-26 21:06N 36°23' W 002°08'1012.9
2015-Apr-26 20:20N 36°22' W 002°20'1112.9
2015-Apr-26 19:29N 36°20' W 002°33'1312.9
2015-Apr-26 18:29N 36°18' W 002°49'11613.0
2015-Apr-26 09:33N 35°59' W 005°11'1515.5
2015-Apr-26 08:33N 35°57' W 005°30'26011.3
2015-Apr-25 09:32N 38°18' W 010°04'1413.3
2015-Apr-25 08:30N 38°31' W 010°07'1713.1
2015-Apr-25 07:13N 38°48' W 010°10'913.1
2015-Apr-25 06:33N 38°57' W 010°11'60612.1
2015-Apr-23 04:33N 48°35' W 006°01'  

Dump ship's entire track history